Data for 03/04/2014

Time Sea-Level Adjusted Pressure Absolute Pressure Temperature Relative Humidity Dew Point   
(mb) (inHg) (mb) (inHg) (C) (F) (%) (C) (F)
00:05 1012 29.88 842 24.86 2 35.6 88 0.2 32.3
00:10 1012 29.88 842 24.86 1.8 35.3 88 0 32.1
00:15 1012 29.88 842 24.86 1.5 34.7 89 -0.1 31.9
00:20 1012 29.88 842 24.86 1.5 34.7 90 -0 32
00:25 1013 29.91 842 24.86 1.5 34.8 90 -0 32
00:30 1013 29.91 842 24.86 1.6 34.8 90 0 32.1
00:35 1013 29.91 842 24.86 1.6 34.8 89 -0 31.9
00:40 1013 29.91 842 24.86 1.6 34.9 90 0.1 32.2
00:45 1012 29.88 842 24.86 1.5 34.7 90 0.1 32.2
00:50 1012 29.88 841 24.83 1.3 34.4 91 0 32.1
00:55 1013 29.91 842 24.86 1.2 34.1 92 -0 32
01:00 1013 29.91 842 24.86 1.2 34.1 92 -0 32
01:05 1013 29.91 842 24.86 1.1 33.9 93 0 32.1
01:10 1012 29.88 842 24.86 0.9 33.7 93 -0 31.9
01:15 1013 29.91 842 24.86 1 33.9 93 -0 32
01:20 1013 29.91 842 24.86 1.1 34.1 92 -0.1 31.9
01:25 1013 29.91 842 24.86 1.4 34.4 90 -0.1 31.8
01:30 1013 29.91 842 24.86 1.4 34.6 90 -0 32
01:35 1012 29.88 842 24.86 1.4 34.5 89 -0.2 31.7
01:40 1012 29.88 842 24.86 1.4 34.6 89 -0.2 31.7
01:45 1012 29.88 842 24.86 1.4 34.6 90 -0.1 31.8
01:50 1012 29.88 842 24.86 1.4 34.5 90 -0.1 31.8
01:55 1012 29.88 841 24.83 1.4 34.5 90 -0.1 31.8
02:00 1012 29.88 842 24.86 1.3 34.3 90 -0.1 31.7
02:05 1013 29.91 842 24.86 1.3 34.3 90 -0.2 31.7
02:10 1013 29.91 842 24.86 1.4 34.5 89 -0.2 31.6
02:15 1013 29.91 842 24.86 1.5 34.8 86 -0.6 30.9
02:20 1013 29.91 842 24.86 1.8 35.3 80 -1.3 29.7
02:25 1013 29.91 842 24.86 2.6 36.6 76 -1.3 29.6
02:30 1013 29.91 842 24.86 2.8 37.1 76 -1 30.3
02:35 1013 29.91 842 24.86 2.8 37.1 77 -0.8 30.6
02:40 1013 29.91 842 24.86 2.7 36.8 79 -0.6 31
02:45 1013 29.91 842 24.86 2.5 36.4 80 -0.7 30.7
02:50 1012 29.88 842 24.86 2.2 36 84 -0.2 31.7
02:55 1012 29.88 842 24.86 1.5 34.8 85 -0.7 30.7
03:00 1012 29.88 841 24.83 2.1 35.7 76 -1.7 28.9
03:05 1012 29.88 842 24.86 2.5 36.4 75 -1.5 29.3
03:10 1012 29.88 841 24.83 3.2 37.7 60 -3.9 25
03:15 1012 29.88 841 24.83 4.1 39.3 58 -3.5 25.8
03:20 1012 29.88 841 24.83 4.3 39.7 59 -3.1 26.4
03:25 1012 29.88 841 24.83 4 39.3 63 -2.3 27.8
03:30 1012 29.88 841 24.83 3.3 38 73 -1.1 30
03:35 1012 29.88 841 24.83 2.5 36.6 77 -1.1 30
03:40 1012 29.88 841 24.83 2.3 36.1 76 -1.6 29.2
03:45 1012 29.88 841 24.83 2.3 36.2 75 -1.7 29
03:50 1012 29.88 841 24.83 2.4 36.4 74 -1.8 28.8
03:55 1012 29.88 841 24.83 2.6 36.6 71 -2.1 28.2
04:00 1012 29.88 841 24.83 2.8 37 71 -2 28.4
04:05 1012 29.88 841 24.83 2.8 37.1 70 -2.1 28.3
04:10 1012 29.88 841 24.83 2.9 37.2 69 -2.2 28.1
04:15 1012 29.88 841 24.83 3 37.4 70 -2 28.3
04:20 1012 29.88 841 24.83 3 37.4 71 -1.8 28.7
04:25 1012 29.88 841 24.83 2.9 37.3 70 -1.9 28.5
04:30 1012 29.88 841 24.83 3 37.4 70 -1.9 28.6
04:35 1012 29.88 841 24.83 3.1 37.6 70 -1.8 28.8
04:40 1012 29.88 841 24.83 3 37.5 68 -2.3 27.8
04:45 1012 29.88 841 24.83 3.1 37.6 69 -2 28.4
04:50 1012 29.88 842 24.86 3 37.4 70 -2 28.5
04:55 1012 29.88 841 24.83 2.9 37.2 69 -2.3 27.9
05:00 1012 29.88 841 24.83 3 37.4 69 -2.2 28.1
05:05 1012 29.88 841 24.83 3 37.3 69 -2.1 28.2
05:10 1012 29.88 842 24.86 2.9 37.2 70 -2 28.4
05:15 1012 29.88 842 24.86 2.9 37.2 69 -2.3 27.9
05:20 1013 29.91 842 24.86 2.9 37.3 67 -2.5 27.4
05:25 1013 29.91 842 24.86 3 37.4 67 -2.5 27.4
05:30 1013 29.91 842 24.86 3 37.5 67 -2.4 27.6
05:35 1013 29.91 842 24.86 3 37.3 70 -2 28.3
05:40 1013 29.91 842 24.86 2.5 36.4 72 -2.1 28.3
05:45 1013 29.91 842 24.86 2.4 36.3 71 -2.3 27.8
05:50 1013 29.91 842 24.86 2.6 36.7 70 -2.3 27.8
05:55 1013 29.91 842 24.86 2.7 36.9 70 -2.3 27.9
06:00 1013 29.91 842 24.86 2.7 36.9 70 -2.2 28
06:05 1013 29.91 842 24.86 2.7 36.9 70 -2.3 27.9
06:10 1013 29.91 842 24.86 2.8 37.1 69 -2.4 27.7
06:15 1013 29.91 842 24.86 2.8 37 71 -1.9 28.6
06:20 1013 29.91 842 24.86 2.3 36.2 73 -2 28.5
06:25 1013 29.91 842 24.86 2.2 36 73 -2.1 28.3
06:30 1013 29.91 842 24.86 2.1 35.8 74 -2 28.5
06:35 1013 29.91 842 24.86 2.1 35.7 73 -2.2 28
06:40 1013 29.91 842 24.86 2.2 35.9 73 -2.1 28.2
06:45 1013 29.91 842 24.86 2.1 35.7 73 -2.3 27.9
06:50 1013 29.91 842 24.86 1.9 35.5 74 -2.1 28.2
06:55 1013 29.91 842 24.86 1.8 35.2 74 -2.4 27.6
07:00 1013 29.91 842 24.86 1.9 35.4 74 -2.3 27.9
07:05 1013 29.91 842 24.86 1.7 35.1 78 -1.8 28.8
07:10 1013 29.91 842 24.86 1.3 34.4 80 -1.8 28.8
07:15 1013 29.91 842 24.86 1.2 34.2 80 -1.9 28.5
07:20 1013 29.91 842 24.86 1.1 34.1 77 -2.4 27.7
07:25 1013 29.91 842 24.86 1.4 34.5 76 -2.4 27.6
07:30 1013 29.91 842 24.86 1.5 34.7 78 -1.9 28.5
07:35 1013 29.91 842 24.86 1.1 34 80 -2 28.4
07:40 1013 29.91 842 24.86 1.1 34.1 77 -2.5 27.5
07:45 1013 29.91 842 24.86 1.5 34.7 72 -2.9 26.7
07:50 1013 29.91 843 24.89 1.8 35.2 71 -2.9 26.7
07:55 1013 29.91 843 24.89 1.8 35.3 71 -3 26.7
08:00 1014 29.94 843 24.89 1.9 35.4 70 -3 26.6
08:05 1014 29.94 843 24.89 1.9 35.5 71 -2.8 26.9
08:10 1013 29.91 843 24.89 2 35.7 70 -2.9 26.8
08:15 1013 29.91 843 24.89 2 35.6 70 -2.9 26.8
08:20 1014 29.94 843 24.89 2.1 35.7 69 -3 26.7
08:25 1014 29.94 843 24.89 2.4 36.2 67 -3.2 26.3
08:30 1014 29.94 843 24.89 2.3 36.1 66 -3.4 25.9
08:35 1014 29.94 843 24.89 2.1 35.7 67 -3.4 25.9
08:40 1014 29.94 843 24.89 2.1 35.8 67 -3.5 25.7
08:45 1014 29.94 843 24.89 1.9 35.3 68 -3.4 25.8
08:50 1014 29.94 843 24.89 1.8 35.3 64 -4.2 24.4
08:55 1014 29.94 843 24.89 1.7 35 65 -4.3 24.2
09:00 1014 29.94 843 24.89 1.4 34.6 66 -4.2 24.5
09:05 1014 29.94 843 24.89 1.4 34.4 71 -3.4 25.8
09:10 1014 29.94 843 24.89 0.8 33.4 74 -3.4 25.9
09:15 1014 29.94 843 24.89 0.7 33.2 72 -3.9 25
09:20 1014 29.94 843 24.89 0.9 33.6 73 -3.4 25.8
09:25 1014 29.94 843 24.89 0.8 33.4 72 -3.7 25.4
09:30 1014 29.94 843 24.89 0.7 33.3 73 -3.6 25.6
09:35 1014 29.94 843 24.89 0.8 33.5 71 -3.9 25.1
09:40 1014 29.94 843 24.89 0.9 33.6 72 -3.6 25.4
09:45 1014 29.94 844 24.92 0.9 33.7 71 -3.7 25.3
09:50 1014 29.94 844 24.92 1.1 33.9 70 -3.9 25
09:55 1014 29.94 844 24.92 1.2 34.2 69 -3.9 25
10:00 1014 29.94 844 24.92 1.4 34.6 67 -4 24.7
10:05 1014 29.94 844 24.92 1.7 35.1 66 -3.9 24.9
10:10 1014 29.94 844 24.92 2 35.6 66 -3.8 25.2
10:15 1015 29.97 844 24.92 2.1 35.8 64 -3.9 25
10:20 1015 29.97 844 24.92 2.3 36.1 62 -4.3 24.3
10:25 1015 29.97 844 24.92 2.5 36.5 63 -3.8 25.1
10:30 1015 29.97 844 24.92 2.7 36.8 62 -3.9 25
10:35 1015 29.97 844 24.92 2.7 36.9 61 -4.1 24.7
10:40 1015 29.97 844 24.92 2.7 36.8 61 -4.1 24.5
10:45 1015 29.97 844 24.92 2.7 36.9 65 -3.2 26.2
10:50 1015 29.97 844 24.92 2.6 36.8 66 -3 26.6
10:55 1015 29.97 844 24.92 2.6 36.6 68 -2.7 27.2
11:00 1015 29.97 844 24.92 2.7 36.9 67 -2.7 27.1
11:05 1015 29.97 844 24.92 3.1 37.5 66 -2.7 27.1
11:10 1015 29.97 844 24.92 3.3 37.9 62 -3.4 25.8
11:15 1015 29.97 844 24.92 3.6 38.4 62 -3.1 26.5
11:20 1015 29.97 844 24.92 3.9 38.9 59 -3.5 25.7
11:25 1015 29.97 844 24.92 4 39.3 57 -3.8 25.2
11:30 1015 29.97 844 24.92 4.4 39.9 52 -4.6 23.7
11:35 1015 29.97 844 24.92 5 41 50 -4.6 23.7
11:40 1015 29.97 844 24.92 5.2 41.4 48 -4.8 23.4
11:45 1015 29.97 844 24.92 5.9 42.7 43 -5.9 21.4
11:50 1015 29.97 844 24.92 6.5 43.7 43 -5.2 22.7
11:55 1015 29.97 844 24.92 6.5 43.6 43 -5.3 22.4
12:00 1015 29.97 844 24.92 7.3 45.1 40 -5.3 22.5
12:05 1015 29.97 844 24.92 7.7 45.8 38 -5.6 21.9
12:10 1015 29.97 844 24.92 7.9 46.3 38 -5.4 22.2
12:15 1015 29.97 844 24.92 8.2 46.8 35 -6.2 20.9
12:20 1015 29.97 844 24.92 8.1 46.6 36 -6.1 21
12:25 1015 29.97 844 24.92 8.1 46.5 37 -5.7 21.7
12:30 1015 29.97 844 24.92 8 46.3 37 -5.9 21.4
12:35 1015 29.97 844 24.92 7.6 45.7 38 -5.6 21.9
12:40 1015 29.97 844 24.92 8.1 46.6 38 -5.4 22.2
12:45 1015 29.97 844 24.92 8.2 46.8 36 -6 21.1
12:50 1015 29.97 844 24.92 8.5 47.2 36 -5.7 21.8
12:55 1015 29.97 844 24.92 9.1 48.3 35 -5.6 21.8
13:00 1015 29.97 844 24.92 9.3 48.7 34 -5.8 21.5
13:05 1015 29.97 844 24.92 9.5 49 34 -5.7 21.7
13:10 1015 29.97 844 24.92 9 48.2 34 -6.1 21
13:15 1015 29.97 844 24.92 8.5 47.4 34 -6.6 20.2
13:20 1015 29.97 844 24.92 8.7 47.7 34 -6.4 20.5
13:25 1015 29.97 844 24.92 8.4 47.1 36 -5.8 21.5
13:30 1015 29.97 844 24.92 8.1 46.5 35 -6.6 20
13:35 1015 29.97 844 24.92 7.9 46.2 36 -6.3 20.7
13:40 1015 29.97 844 24.92 8.6 47.6 34 -6.4 20.5
13:45 1015 29.97 844 24.92 8.6 47.4 35 -5.9 21.3
13:50 1015 29.97 844 24.92 8.3 46.9 35 -6.2 20.8
13:55 1015 29.97 844 24.92 8.8 47.8 35 -6 21.2
14:00 1015 29.97 844 24.92 9 48.1 35 -5.6 21.9
14:05 1015 29.97 844 24.92 8.8 47.9 36 -5.5 22.1
14:10 1015 29.97 844 24.92 9.2 48.6 33 -6.2 20.8
14:15 1015 29.97 844 24.92 9.1 48.5 33 -6.2 20.9
14:20 1015 29.97 844 24.92 8.6 47.5 36 -5.8 21.6
14:25 1015 29.97 844 24.92 8.3 47 35 -6.3 20.7
14:30 1015 29.97 844 24.92 8 46.5 37 -5.9 21.3
14:35 1015 29.97 844 24.92 8.1 46.6 36 -6.2 20.8
14:40 1015 29.97 844 24.92 7.9 46.2 37 -6 21.1
14:45 1015 29.97 844 24.92 8 46.5 37 -5.7 21.7
14:50 1015 29.97 844 24.92 7.9 46.1 38 -5.7 21.7
14:55 1015 29.97 844 24.92 7.2 45 41 -5.3 22.4
15:00 1015 29.97 844 24.92 7.4 45.2 39 -5.6 22
15:05 1015 29.97 844 24.92 6.5 43.8 40 -6.1 21.1
15:10 1015 29.97 844 24.92 6.1 42.9 40 -6.5 20.3
15:15 1015 29.97 844 24.92 6.4 43.5 40 -6.3 20.7
15:20 1015 29.97 844 24.92 7.1 44.7 39 -6 21.2
15:25 1015 29.97 844 24.92 7.4 45.3 37 -6.2 20.9
15:30 1015 29.97 844 24.92 7.6 45.7 37 -6.3 20.6
15:35 1015 29.97 844 24.92 7.1 44.7 39 -5.8 21.5
15:40 1015 29.97 844 24.92 6.9 44.5 40 -5.6 21.9
15:45 1015 29.97 844 24.92 6.9 44.3 42 -5.1 22.8
15:50 1015 29.97 844 24.92 6.7 44 43 -5 23
15:55 1015 29.97 844 24.92 6.7 44 42 -5.3 22.4
16:00 1015 29.97 844 24.92 6.4 43.5 41 -6 21.3
16:05 1015 29.97 844 24.92 6.3 43.3 41 -5.9 21.3
16:10 1015 29.97 844 24.92 6.2 43.2 42 -5.8 21.6
16:15 1015 29.97 844 24.92 6.4 43.5 42 -5.5 22.1
16:20 1015 29.97 844 24.92 6.2 43.2 44 -5.1 22.7
16:25 1015 29.97 844 24.92 6.3 43.4 42 -5.7 21.7
16:30 1015 29.97 844 24.92 6.2 43.1 42 -5.9 21.4
16:35 1015 29.97 844 24.92 6.3 43.3 42 -5.8 21.5
16:40 1015 29.97 845 24.95 6.2 43.1 42 -5.9 21.4
16:45 1015 29.97 845 24.95 5.7 42.3 43 -5.8 21.5
16:50 1015 29.97 845 24.95 5.5 41.9 45 -5.3 22.4
16:55 1015 29.97 845 24.95 5.5 41.9 45 -5.5 22.2
17:00 1015 29.97 845 24.95 5.4 41.7 45 -5.6 21.9
17:05 1015 29.97 845 24.95 5.4 41.8 46 -5.3 22.5
17:10 1016 30 845 24.95 5.4 41.7 47 -5.2 22.7
17:15 1016 30 845 24.95 5.3 41.5 48 -4.9 23.2
17:20 1016 30 845 24.95 5.2 41.4 46 -5.4 22.3
17:25 1016 30 845 24.95 5.3 41.6 47 -5 23
17:30 1016 30 845 24.95 5.3 41.5 48 -4.8 23.3
17:35 1016 30 845 24.95 5.1 41.2 49 -4.7 23.5
17:40 1016 30 845 24.95 5.2 41.3 48 -4.9 23.2
17:45 1016 30 845 24.95 5.2 41.4 47 -5.1 22.9
17:50 1016 30 845 24.95 5.3 41.5 48 -5 23.1
17:55 1016 30 845 24.95 5.3 41.5 46 -5.4 22.3
18:00 1016 30 845 24.95 5.4 41.7 46 -5.3 22.5
18:05 1016 30 845 24.95 5.4 41.8 47 -5 23.1
18:10 1016 30 845 24.95 5.5 41.8 44 -5.8 21.5
18:15 1016 30 845 24.95 5.8 42.4 42 -6.3 20.7
18:20 1016 30 845 24.95 6.2 43.2 40 -6.3 20.6
18:25 1016 30 845 24.95 6.8 44.3 38 -6.3 20.6
18:30 1016 30 845 24.95 6.8 44.3 39 -6.2 20.8
18:35 1016 30 845 24.95 6.3 43.3 42 -5.7 21.8
18:40 1016 30 845 24.95 6 42.8 42 -6 21.2
18:45 1016 30 845 24.95 5.9 42.5 42 -6.2 20.8
18:50 1016 30 845 24.95 5.8 42.4 45 -5.3 22.4
18:55 1016 30 845 24.95 5.5 42 46 -5.2 22.6
19:00 1016 30 845 24.95 5.1 41.1 49 -4.8 23.3
19:05 1016 30 845 24.95 4.8 40.6 50 -4.8 23.3
19:10 1016 30 845 24.95 4.4 40 51 -4.9 23.2
19:15 1016 30 845 24.95 4.3 39.8 52 -4.7 23.5
19:20 1016 30 845 24.95 4.2 39.5 52 -4.8 23.3
19:25 1016 30 845 24.95 4.2 39.5 51 -5 22.9
19:30 1016 30 845 24.95 4 39.2 52 -4.9 23.2
19:35 1016 30 845 24.95 4 39.1 52 -5 22.9
19:40 1016 30 845 24.95 3.9 39 51 -5.2 22.6
19:45 1016 30 845 24.95 3.9 39.1 51 -5.4 22.2
19:50 1016 30 845 24.95 4 39.2 49 -5.8 21.5
19:55 1016 30 845 24.95 4 39.2 49 -5.9 21.5
20:00 1016 30 845 24.95 4.1 39.4 48 -5.9 21.4
20:05 1016 30 845 24.95 4.1 39.5 48 -5.9 21.4
20:10 1016 30 845 24.95 4.2 39.5 48 -6 21.2
20:15 1016 30 845 24.95 4.2 39.6 48 -5.8 21.6
20:20 1016 30 845 24.95 4.3 39.7 47 -6.2 20.9
20:25 1016 30 845 24.95 4.4 39.9 46 -6.2 20.8
20:30 1016 30 845 24.95 4.4 39.9 47 -6.1 21.1
20:35 1016 30 845 24.95 4.3 39.8 46 -6.2 20.9
20:40 1016 30 845 24.95 4.2 39.6 47 -6.1 21.1
20:45 1016 30 845 24.95 3.9 39 52 -5.1 22.8
20:50 1016 30 845 24.95 3 37.4 53 -5.6 21.9
20:55 1016 30 845 24.95 2.8 37 54 -5.7 21.8
21:00 1016 30 845 24.95 2.9 37.2 54 -5.6 22
21:05 1016 30 845 24.95 2.5 36.5 57 -5.1 22.8
21:10 1016 30 845 24.95 2.2 35.9 57 -5.5 22.2
21:15 1016 30 845 24.95 2.4 36.4 55 -5.6 21.9
21:20 1016 30 845 24.95 2.8 37.1 54 -5.7 21.8
21:25 1016 30 845 24.95 2.9 37.3 56 -5 23
21:30 1016 30 846 24.98 2.4 36.3 55 -5.7 21.7
21:35 1016 30 845 24.95 2.4 36.2 56 -5.6 22
21:40 1016 30 845 24.95 2.1 35.7 55 -6.1 21
21:45 1016 30 845 24.95 2.1 35.8 53 -6.6 20.2
21:50 1016 30 845 24.95 2.2 35.9 54 -6.3 20.7
21:55 1016 30 845 24.95 2.2 36 51 -6.9 19.6
22:00 1016 30 845 24.95 2.3 36.1 53 -6.3 20.7
22:05 1016 30 845 24.95 1.8 35.3 58 -5.7 21.8
22:10 1016 30 845 24.95 1.4 34.6 59 -5.8 21.6
22:15 1016 30 846 24.98 1.5 34.7 57 -6 21.1
22:20 1016 30 846 24.98 1.9 35.5 53 -6.7 20
22:25 1016 30 846 24.98 2.5 36.5 50 -6.8 19.7
22:30 1016 30 846 24.98 2.9 37.2 49 -7 19.5
22:35 1016 30 846 24.98 3.2 37.8 48 -6.7 20
22:40 1016 30 846 24.98 3.3 37.9 49 -6.4 20.5
22:45 1016 30 846 24.98 3.2 37.7 50 -6.3 20.7
22:50 1016 30 846 24.98 3.1 37.6 49 -6.6 20.2
22:55 1017 30.03 846 24.98 3 37.4 50 -6.5 20.3
23:00 1017 30.03 846 24.98 2.8 37.1 49 -6.9 19.6
23:05 1017 30.03 846 24.98 2.9 37.3 50 -6.5 20.2
23:10 1017 30.03 846 24.98 2.9 37.2 50 -6.6 20.1
23:15 1017 30.03 846 24.98 2.8 37.1 47 -7.4 18.7
23:20 1017 30.03 846 24.98 3.2 37.7 44 -7.8 17.9
23:25 1017 30.03 846 24.98 2.9 37.1 49 -6.9 19.5
23:30 1017 30.03 846 24.98 2.4 36.4 51 -6.7 19.9
23:35 1017 30.03 846 24.98 2.2 36 50 -7 19.3
23:40 1017 30.03 846 24.98 2 35.6 52 -6.7 19.9
23:45 1017 30.03 846 24.98 1.7 35 53 -6.8 19.7
23:50 1017 30.03 846 24.98 1.4 34.6 56 -6.4 20.4
23:55 1017 30.03 846 24.98 1.1 34 54 -7.1 19.1
24:00 1017 30.03 846 24.98 1.5 34.6 53 -7.2 19